LFLC/CFE METAR and TAF weather

Enter ICAO airport designator
Station Type Date Time Source
LFLC METAR 2020/11/28 20:30 UTC NOAA

LFLC 282030Z AUTO 27003KT CAVOK 05/01 Q1014 NOSIG


Station Type Date Time Source
LFLC Decoded METAR 2020/11/28 20:30 UTC NOAA

Clermont-Ferrand, France (LFLC) 45-47N 003-10E 330M
Nov 28, 2020 - 03:30 PM EST / 2020.11.28 2030 UTC
Wind: from the W (270 degrees) at 3 MPH (3 KT):0
Visibility: greater than 7 mile(s):0
Temperature: 41 F (5 C)
Dew Point: 33 F (1 C)
Relative Humidity: 75%
Pressure (altimeter): 29.94 in. Hg (1014 hPa)
ob: LFLC 282030Z AUTO 27003KT CAVOK 05/01 Q1014 NOSIG
cycle: 20

Station Type Date Time Source
LFLC TAF 2020/11/28 18:45 UTC NOAA

TAF LFLC 281700Z 2818/2918 36005KT CAVOK PROB30 2902/2909 4000 BR

Example: see airport list